createdAt,value
2023-05-20T00:01:22.305Z,101542.47
2023-05-20T00:03:50.400Z,101549.01
2023-05-20T00:06:18.518Z,101544.53
2023-05-20T00:08:46.455Z,101536.72
2023-05-20T00:11:14.468Z,101532.73
2023-05-20T00:13:42.366Z,101531.45
2023-05-20T00:16:10.408Z,101535.31
2023-05-20T00:18:38.477Z,101532.73
2023-05-20T00:21:06.458Z,101533.55
2023-05-20T00:23:34.364Z,101535.90
2023-05-20T00:26:02.232Z,101536.72
2023-05-20T00:28:30.207Z,101528.57
2023-05-20T00:30:58.126Z,101525.70
2023-05-20T00:33:26.010Z,101519.94
2023-05-20T00:35:53.876Z,101518.05
2023-05-20T00:38:22.019Z,101520.92
2023-05-20T00:40:49.926Z,101521.91
2023-05-20T00:43:17.841Z,101527.37
2023-05-20T00:45:45.734Z,101529.91
2023-05-20T00:48:14.177Z,101526.74
2023-05-20T00:50:42.087Z,101520.98
2023-05-20T00:53:11.278Z,101516.24
2023-05-20T00:55:39.555Z,101515.13
2023-05-20T00:58:07.670Z,101518.53
2023-05-20T01:00:35.717Z,101522.39
2023-05-20T01:03:03.915Z,101522.91
2023-05-20T01:05:32.133Z,101520.04
2023-05-20T01:08:00.171Z,101517.62
2023-05-20T01:10:31.581Z,101514.77
2023-05-20T01:13:03.688Z,101509.02
2023-05-20T01:15:33.315Z,101516.34
2023-05-20T01:18:03.749Z,101514.77
2023-05-20T01:20:33.762Z,101501.95
2023-05-20T01:23:01.728Z,101499.80
2023-05-20T01:25:29.826Z,101498.20
2023-05-20T01:27:59.063Z,101499.99
2023-05-20T01:30:33.573Z,101499.18
2023-05-20T01:33:06.315Z,101499.18
2023-05-20T01:35:36.296Z,101504.15
2023-05-20T01:38:07.511Z,101499.18
2023-05-20T01:40:36.058Z,101506.50
2023-05-20T01:43:04.805Z,101499.99
2023-05-20T01:45:33.524Z,101496.30
2023-05-20T01:48:03.049Z,101492.93
2023-05-20T01:50:31.017Z,101485.61
2023-05-20T01:52:58.934Z,101487.96
2023-05-20T01:55:26.933Z,101485.09
2023-05-20T01:57:54.957Z,101490.09
2023-05-20T02:00:23.118Z,101491.03
2023-05-20T02:02:51.127Z,101488.48
2023-05-20T02:05:19.421Z,101490.09
2023-05-20T02:07:47.463Z,101484.04
2023-05-20T02:10:15.408Z,101483.22
2023-05-20T02:12:43.938Z,101496.01
2023-05-20T02:15:12.126Z,101484.23
2023-05-20T02:17:41.007Z,101480.73
2023-05-20T02:20:09.411Z,101484.13
2023-05-20T02:22:37.773Z,101483.32
2023-05-20T02:25:05.939Z,101473.80
2023-05-20T02:27:33.907Z,101476.25
2023-05-20T02:30:02.144Z,101479.13
2023-05-20T02:32:30.177Z,101471.61
2023-05-20T02:34:58.174Z,101467.16
2023-05-20T02:37:26.098Z,101461.70
2023-05-20T02:39:53.980Z,101461.70
2023-05-20T02:42:21.921Z,101449.41
2023-05-20T02:44:49.866Z,101460.59
2023-05-20T02:47:17.795Z,101462.39
2023-05-20T02:49:45.724Z,101462.88
2023-05-20T02:52:13.626Z,101467.82
2023-05-20T02:54:41.974Z,101467.23
2023-05-20T02:57:09.899Z,101476.35
2023-05-20T02:59:37.795Z,101477.34
2023-05-20T03:02:06.257Z,101474.98
2023-05-20T03:04:34.249Z,101467.62
2023-05-20T03:07:02.168Z,101467.33
2023-05-20T03:09:30.382Z,101461.27
2023-05-20T03:11:58.238Z,101454.15
2023-05-20T03:14:26.209Z,101461.38
2023-05-20T03:16:56.756Z,101452.16
2023-05-20T03:19:24.992Z,101467.98
2023-05-20T03:21:53.068Z,101465.01
2023-05-20T03:24:21.068Z,101471.22
2023-05-20T03:26:49.277Z,101474.45
2023-05-20T03:29:19.227Z,101477.56
2023-05-20T03:31:47.790Z,101469.12
2023-05-20T03:34:15.890Z,101457.52
2023-05-20T03:36:43.827Z,101468.70
2023-05-20T03:39:11.806Z,101456.60
2023-05-20T03:41:39.699Z,101465.89
2023-05-20T03:44:07.693Z,101468.14
2023-05-20T03:46:35.688Z,101459.22
2023-05-20T03:49:03.797Z,101466.41
2023-05-20T03:51:31.946Z,101460.07
2023-05-20T03:53:59.846Z,101470.14
2023-05-20T03:56:27.825Z,101473.48
2023-05-20T03:58:55.684Z,101474.00
2023-05-20T04:01:27.010Z,101471.77
2023-05-20T04:03:55.069Z,101467.00
2023-05-20T04:06:23.901Z,101463.01
2023-05-20T04:08:52.018Z,101464.77
2023-05-20T04:11:19.951Z,101461.31
2023-05-20T04:13:47.849Z,101465.16
2023-05-20T04:16:16.315Z,101472.16
2023-05-20T04:18:47.398Z,101473.44
2023-05-20T04:21:15.482Z,101472.66
2023-05-20T04:23:43.437Z,101475.53
2023-05-20T04:26:11.661Z,101471.84
2023-05-20T04:28:40.360Z,101472.36
2023-05-20T04:31:08.327Z,101475.70
2023-05-20T04:33:39.323Z,101474.88
2023-05-20T04:36:09.221Z,101471.55
2023-05-20T04:38:37.381Z,101467.91
2023-05-20T04:41:05.758Z,101467.55
2023-05-20T04:43:35.077Z,101470.95
2023-05-20T04:46:02.979Z,101472.23
2023-05-20T04:48:30.844Z,101468.73
2023-05-20T04:50:58.746Z,101464.58
2023-05-20T04:53:26.975Z,101462.81
2023-05-20T04:55:58.428Z,101466.80
2023-05-20T04:58:26.373Z,101462.65
2023-05-20T05:00:54.759Z,101456.21
2023-05-20T05:03:22.763Z,101456.05
2023-05-20T05:05:50.691Z,101447.74
2023-05-20T05:08:18.741Z,101444.21
2023-05-20T05:10:47.202Z,101445.32
2023-05-20T05:13:15.160Z,101451.66
2023-05-20T05:15:43.233Z,101454.67
2023-05-20T05:18:11.332Z,101449.05
2023-05-20T05:20:39.314Z,101450.78
2023-05-20T05:23:07.301Z,101446.46
2023-05-20T05:25:35.450Z,101451.83
2023-05-20T05:28:03.619Z,101451.14
2023-05-20T05:30:31.514Z,101446.04
2023-05-20T05:32:59.548Z,101444.57
2023-05-20T05:35:27.613Z,101443.09
2023-05-20T05:37:55.571Z,101443.39
2023-05-20T05:40:23.668Z,101437.63
2023-05-20T05:42:51.558Z,101435.09
2023-05-20T05:45:19.516Z,101425.96
2023-05-20T05:47:47.509Z,101439.04
2023-05-20T05:50:15.569Z,101431.81
2023-05-20T05:52:43.435Z,101428.77
2023-05-20T05:55:12.229Z,101430.93
2023-05-20T05:57:40.181Z,101438.55
2023-05-20T06:00:09.627Z,101442.84
2023-05-20T06:02:37.808Z,101439.76
2023-05-20T06:05:06.988Z,101441.46
2023-05-20T06:07:34.902Z,101448.13
2023-05-20T06:10:03.251Z,101446.43
2023-05-20T06:12:31.238Z,101446.04
2023-05-20T06:14:59.155Z,101449.99
2023-05-20T06:17:27.256Z,101450.09
2023-05-20T06:19:55.185Z,101450.68
2023-05-20T06:22:23.092Z,101448.91
2023-05-20T06:24:50.959Z,101449.54
2023-05-20T06:27:18.845Z,101429.16
2023-05-20T06:29:46.784Z,101419.06
2023-05-20T06:32:14.729Z,101416.18
2023-05-20T06:34:42.711Z,101411.51
2023-05-20T06:37:10.620Z,101411.02
2023-05-20T06:39:38.709Z,101415.07
2023-05-20T06:42:06.893Z,101414.81
2023-05-20T06:44:34.833Z,101413.41
2023-05-20T06:47:02.845Z,101408.14
2023-05-20T06:49:30.827Z,101413.27
2023-05-20T06:51:58.687Z,101403.53
2023-05-20T06:54:26.831Z,101410.66
2023-05-20T06:56:54.696Z,101403.17
2023-05-20T06:59:22.626Z,101402.45
2023-05-20T07:01:50.565Z,101411.18
2023-05-20T07:04:18.469Z,101417.98
2023-05-20T07:06:46.544Z,101418.05
2023-05-20T07:09:14.501Z,101408.43
2023-05-20T07:11:42.507Z,101414.25
2023-05-20T07:14:10.515Z,101403.07
2023-05-20T07:16:38.660Z,101408.07
2023-05-20T07:19:06.789Z,101409.97
2023-05-20T07:21:34.734Z,101409.16
2023-05-20T07:24:02.740Z,101401.60
2023-05-20T07:26:34.832Z,101400.78
2023-05-20T07:29:03.287Z,101398.49
2023-05-20T07:31:32.286Z,101394.30
2023-05-20T07:34:00.279Z,101397.19
2023-05-20T07:36:29.384Z,101392.18
2023-05-20T07:39:03.623Z,101390.19
2023-05-20T07:41:33.510Z,101388.09
2023-05-20T07:44:04.355Z,101389.17
2023-05-20T07:46:33.155Z,101386.82
2023-05-20T07:49:01.160Z,101387.87
2023-05-20T07:51:29.033Z,101383.98
2023-05-20T07:53:57.264Z,101382.47
2023-05-20T07:56:25.453Z,101389.27
2023-05-20T07:58:59.729Z,101387.70
2023-05-20T08:01:28.726Z,101382.50
2023-05-20T08:03:57.003Z,101386.43
2023-05-20T08:06:29.809Z,101390.19
2023-05-20T08:08:58.119Z,101379.98
2023-05-20T08:11:26.137Z,101386.59
2023-05-20T08:13:54.237Z,101383.19
2023-05-20T08:16:23.394Z,101384.30
2023-05-20T08:18:51.527Z,101379.66
2023-05-20T08:21:19.570Z,101376.26
2023-05-20T08:23:47.469Z,101382.08
2023-05-20T08:26:15.580Z,101376.09
2023-05-20T08:28:43.542Z,101384.79
2023-05-20T08:31:12.182Z,101381.95
2023-05-20T08:33:40.166Z,101377.50
2023-05-20T08:36:09.678Z,101368.64
2023-05-20T08:38:37.988Z,101373.38
2023-05-20T08:41:06.072Z,101365.86
2023-05-20T08:43:34.183Z,101369.81
2023-05-20T08:46:04.491Z,101366.41
2023-05-20T08:48:33.530Z,101368.54
2023-05-20T08:51:04.375Z,101365.66
2023-05-20T08:53:32.379Z,101373.61
2023-05-20T08:56:04.613Z,101363.38
2023-05-20T08:58:33.931Z,101369.42
2023-05-20T09:01:02.376Z,101367.07
2023-05-20T09:03:30.358Z,101372.59
2023-05-20T09:06:10.934Z,101383.91
2023-05-20T09:08:39.240Z,101373.41
2023-05-20T09:11:08.122Z,101363.41
2023-05-20T09:13:36.073Z,101360.27
2023-05-20T09:16:04.593Z,101362.91
2023-05-20T09:18:32.809Z,101356.84
2023-05-20T09:21:07.702Z,101368.15
2023-05-20T09:23:38.603Z,101366.35
2023-05-20T09:26:06.847Z,101369.48
2023-05-20T09:28:35.129Z,101366.05
2023-05-20T09:31:03.420Z,101360.27
2023-05-20T09:33:33.241Z,101366.31
2023-05-20T09:36:06.159Z,101357.62
2023-05-20T09:38:39.249Z,101350.26
2023-05-20T09:41:13.735Z,101345.29
2023-05-20T09:43:42.192Z,101357.36
2023-05-20T09:46:10.564Z,101353.70
2023-05-20T09:48:39.404Z,101351.83
2023-05-20T09:51:09.081Z,101356.05
2023-05-20T09:53:37.435Z,101361.31
2023-05-20T09:56:05.856Z,101360.27
2023-05-20T09:58:35.483Z,101363.41
2023-05-20T10:01:03.656Z,101356.31
2023-05-20T10:03:32.006Z,101364.48
2023-05-20T10:06:03.107Z,101367.13
2023-05-20T10:08:52.118Z,101355.55
2023-05-20T10:12:08.321Z,101350.52
2023-05-20T10:15:05.786Z,101355.27
2023-05-20T10:18:02.897Z,101345.52
2023-05-20T10:20:31.035Z,101344.41
2023-05-20T10:22:59.696Z,101340.45
2023-05-20T10:25:30.917Z,101339.63
2023-05-20T10:28:10.367Z,101345.19
2023-05-20T10:30:39.883Z,101349.64
2023-05-20T10:33:09.870Z,101351.47
2023-05-20T10:35:48.477Z,101349.61
2023-05-20T10:38:16.423Z,101334.59
2023-05-20T10:40:44.332Z,101336.95
2023-05-20T10:43:18.172Z,101339.57
2023-05-20T10:45:51.432Z,101343.52
2023-05-20T10:48:37.556Z,101339.05
2023-05-20T10:51:06.184Z,101335.31
2023-05-20T10:53:42.499Z,101328.19
2023-05-20T10:56:21.065Z,101322.04
2023-05-20T10:58:49.357Z,101325.90
2023-05-20T11:01:18.261Z,101322.66
2023-05-20T11:03:48.998Z,101325.80
2023-05-20T11:06:19.418Z,101322.66
2023-05-20T11:08:47.829Z,101321.32
2023-05-20T11:11:16.720Z,101317.43
2023-05-20T11:13:44.755Z,101318.18
2023-05-20T11:16:12.927Z,101327.17
2023-05-20T11:18:41.029Z,101325.60
2023-05-20T11:21:09.362Z,101330.64
2023-05-20T11:23:40.595Z,101324.03
2023-05-20T11:26:09.345Z,101313.99
2023-05-20T11:28:37.493Z,101318.48
2023-05-20T11:31:05.978Z,101306.34
2023-05-20T11:33:33.914Z,101312.39
2023-05-20T11:36:06.518Z,101312.36
2023-05-20T11:38:36.687Z,101309.16
2023-05-20T11:41:04.695Z,101311.22
2023-05-20T11:43:35.171Z,101305.36
2023-05-20T11:46:03.310Z,101314.06
2023-05-20T11:48:31.334Z,101304.02
2023-05-20T11:51:01.315Z,101306.67
2023-05-20T11:53:30.190Z,101301.87
2023-05-20T11:56:00.189Z,101299.64
2023-05-20T11:58:33.048Z,101307.20
2023-05-20T12:01:09.526Z,101287.67
2023-05-20T12:03:48.951Z,101280.48
2023-05-20T12:06:18.804Z,101279.30
2023-05-20T12:08:46.940Z,101290.09
2023-05-20T12:11:15.073Z,101286.88
2023-05-20T12:13:43.134Z,101288.45
2023-05-20T12:16:11.177Z,101291.95
2023-05-20T12:18:39.236Z,101286.27
2023-05-20T12:21:07.161Z,101279.27
2023-05-20T12:23:35.487Z,101276.12
2023-05-20T12:26:03.597Z,101270.34
2023-05-20T12:28:31.545Z,101262.91
2023-05-20T12:30:59.510Z,101262.27
2023-05-20T12:33:28.920Z,101256.57
2023-05-20T12:35:57.012Z,101252.23
2023-05-20T12:38:24.905Z,101250.82
2023-05-20T12:40:52.835Z,101240.39
2023-05-20T12:43:20.807Z,101247.16
2023-05-20T12:45:48.802Z,101244.18
2023-05-20T12:48:16.953Z,101244.41
2023-05-20T12:50:45.195Z,101244.87
2023-05-20T12:53:13.151Z,101235.61
2023-05-20T12:55:41.692Z,101224.23
2023-05-20T12:58:10.270Z,101231.82
2023-05-20T13:00:38.183Z,101235.22
2023-05-20T13:03:06.445Z,101213.02
2023-05-20T13:05:34.517Z,101214.36
2023-05-20T13:08:02.595Z,101214.09
2023-05-20T13:10:30.553Z,101212.52
2023-05-20T13:12:58.710Z,101216.98
2023-05-20T13:15:27.110Z,101200.36
2023-05-20T13:17:55.703Z,101201.12
2023-05-20T13:20:24.335Z,101206.15
2023-05-20T13:22:52.453Z,101203.50
2023-05-20T13:25:20.519Z,101208.70
2023-05-20T13:27:48.501Z,101210.17
2023-05-20T13:30:16.518Z,101210.40
2023-05-20T13:32:44.447Z,101210.86
2023-05-20T13:35:14.340Z,101206.09
2023-05-20T13:37:42.248Z,101198.37
2023-05-20T13:40:10.799Z,101189.67
2023-05-20T13:42:38.895Z,101182.05
2023-05-20T13:45:07.690Z,101176.13
2023-05-20T13:47:35.843Z,101176.23
2023-05-20T13:50:03.928Z,101175.77
2023-05-20T13:52:32.017Z,101165.96
2023-05-20T13:54:59.911Z,101163.18
2023-05-20T13:57:27.952Z,101163.64
2023-05-20T13:59:56.138Z,101164.33
2023-05-20T14:02:24.129Z,101167.89
2023-05-20T14:04:52.187Z,101162.89
2023-05-20T14:07:20.179Z,101157.72
2023-05-20T14:09:48.163Z,101159.78
2023-05-20T14:12:16.108Z,101151.73
2023-05-20T14:14:44.150Z,101145.03
2023-05-20T14:17:12.227Z,101139.90
2023-05-20T14:19:40.212Z,101144.25
2023-05-20T14:22:08.385Z,101138.56
2023-05-20T14:24:36.351Z,101147.72
2023-05-20T14:27:04.257Z,101154.81
2023-05-20T14:29:32.258Z,101163.21
2023-05-20T14:32:00.342Z,101154.81
2023-05-20T14:34:28.634Z,101170.24
2023-05-20T14:36:56.693Z,101171.48
2023-05-20T14:39:24.609Z,101172.37
2023-05-20T14:41:52.511Z,101161.94
2023-05-20T14:44:20.413Z,101158.24
2023-05-20T14:46:48.872Z,101167.86
2023-05-20T14:49:16.883Z,101170.18
2023-05-20T14:51:44.994Z,101170.41
2023-05-20T14:54:13.164Z,101171.20
2023-05-20T14:56:42.174Z,101169.52
2023-05-20T14:59:11.007Z,101172.21
2023-05-20T15:01:39.004Z,101162.13
2023-05-20T15:04:07.080Z,101157.33
2023-05-20T15:06:37.188Z,101158.87
2023-05-20T15:09:07.608Z,101152.06
2023-05-20T15:11:35.529Z,101151.73
2023-05-20T15:14:03.619Z,101149.55
2023-05-20T15:16:31.605Z,101138.36
2023-05-20T15:18:59.632Z,101148.99
2023-05-20T15:21:27.660Z,101146.18
2023-05-20T15:23:55.615Z,101144.15
2023-05-20T15:26:23.621Z,101145.63
2023-05-20T15:28:51.713Z,101144.61
2023-05-20T15:31:19.654Z,101147.65
2023-05-20T15:33:47.694Z,101146.08
2023-05-20T15:36:15.830Z,101149.32
2023-05-20T15:38:45.395Z,101151.67
2023-05-20T15:41:17.426Z,101148.50
2023-05-20T15:43:45.528Z,101143.04
2023-05-20T15:46:13.460Z,101147.29
2023-05-20T15:48:41.496Z,101144.25
2023-05-20T15:51:09.380Z,101153.54
2023-05-20T15:53:39.327Z,101152.78
2023-05-20T15:56:10.485Z,101149.05
2023-05-20T15:58:38.435Z,101148.96
2023-05-20T16:01:06.479Z,101143.70
2023-05-20T16:03:34.791Z,101145.82
2023-05-20T16:06:02.859Z,101141.57
2023-05-20T16:08:30.830Z,101140.00
2023-05-20T16:10:58.723Z,101144.25
2023-05-20T16:13:26.829Z,101140.45
2023-05-20T16:15:58.739Z,101150.98
2023-05-20T16:18:29.817Z,101148.63
2023-05-20T16:20:58.658Z,101140.65
2023-05-20T16:23:26.775Z,101131.92
2023-05-20T16:25:54.759Z,101121.75
2023-05-20T16:28:23.530Z,101127.90
2023-05-20T16:30:51.467Z,101129.05
2023-05-20T16:33:19.403Z,101126.23
2023-05-20T16:35:47.293Z,101123.65
2023-05-20T16:38:15.163Z,101123.52
2023-05-20T16:40:43.094Z,101126.55
2023-05-20T16:43:11.026Z,101128.75
2023-05-20T16:45:39.004Z,101137.84
2023-05-20T16:48:07.254Z,101132.12
2023-05-20T16:50:35.298Z,101135.13
2023-05-20T16:53:03.395Z,101142.62
2023-05-20T16:55:31.448Z,101139.54
2023-05-20T16:57:59.558Z,101139.41
2023-05-20T17:00:28.249Z,101154.09
2023-05-20T17:02:56.322Z,101154.48
2023-05-20T17:05:24.556Z,101148.08
2023-05-20T17:07:52.997Z,101150.73
2023-05-20T17:10:21.017Z,101156.38
2023-05-20T17:12:49.066Z,101156.94
2023-05-20T17:15:17.339Z,101156.02
2023-05-20T17:17:45.320Z,101153.96
2023-05-20T17:20:13.713Z,101156.19
2023-05-20T17:22:41.785Z,101157.03
2023-05-20T17:25:10.216Z,101149.41
2023-05-20T17:27:38.126Z,101146.57
2023-05-20T17:30:06.918Z,101146.90
2023-05-20T17:32:34.844Z,101151.12
2023-05-20T17:35:03.430Z,101148.01
2023-05-20T17:37:31.346Z,101150.62
2023-05-20T17:39:59.357Z,101152.75
2023-05-20T17:42:27.365Z,101150.95
2023-05-20T17:44:55.414Z,101153.14
2023-05-20T17:47:23.508Z,101162.92
2023-05-20T17:49:51.930Z,101155.56
2023-05-20T17:52:19.903Z,101163.73
2023-05-20T17:54:47.882Z,101164.55
2023-05-20T17:57:15.823Z,101162.76
2023-05-20T17:59:46.685Z,101166.95
2023-05-20T18:02:14.638Z,101162.79
2023-05-20T18:04:42.740Z,101157.55
2023-05-20T18:07:10.653Z,101161.55
2023-05-20T18:09:38.559Z,101156.80
2023-05-20T18:12:07.680Z,101162.63
2023-05-20T18:14:35.594Z,101155.01
2023-05-20T18:17:03.531Z,101159.78
2023-05-20T18:19:31.621Z,101146.38
2023-05-20T18:21:59.919Z,101157.72
2023-05-20T18:24:27.961Z,101153.57
2023-05-20T18:26:55.821Z,101160.17
2023-05-20T18:29:24.771Z,101165.77
2023-05-20T18:31:52.721Z,101167.37
2023-05-20T18:34:20.676Z,101167.92
2023-05-20T18:36:49.051Z,101174.27
2023-05-20T18:39:21.645Z,101171.12
2023-05-20T18:41:49.945Z,101171.65
2023-05-20T18:44:19.319Z,101172.24
2023-05-20T18:46:47.748Z,101178.88
2023-05-20T18:49:15.758Z,101173.38
2023-05-20T18:51:43.740Z,101166.84
2023-05-20T18:54:11.722Z,101168.16
2023-05-20T18:56:39.841Z,101161.09
2023-05-20T18:59:07.810Z,101158.18
2023-05-20T19:01:37.778Z,101166.95
2023-05-20T19:04:05.901Z,101156.41
2023-05-20T19:06:36.169Z,101156.97
2023-05-20T19:09:05.149Z,101163.05
2023-05-20T19:11:33.386Z,101157.52
2023-05-20T19:14:01.373Z,101156.48
2023-05-20T19:16:29.402Z,101161.25
2023-05-20T19:18:57.437Z,101158.90
2023-05-20T19:21:25.334Z,101172.34
2023-05-20T19:23:53.703Z,101182.34
2023-05-20T19:26:21.636Z,101182.12
2023-05-20T19:28:49.608Z,101178.71
2023-05-20T19:31:22.149Z,101189.51
2023-05-20T19:33:50.450Z,101188.46
2023-05-20T19:36:18.843Z,101194.02
2023-05-20T19:38:46.767Z,101202.98
2023-05-20T19:41:15.434Z,101207.72
2023-05-20T19:43:43.336Z,101214.62
2023-05-20T19:46:11.395Z,101203.57
2023-05-20T19:48:39.414Z,101199.91
2023-05-20T19:51:07.548Z,101209.65
2023-05-20T19:53:35.480Z,101210.95
2023-05-20T19:56:03.590Z,101211.25
2023-05-20T19:58:31.561Z,101211.80
2023-05-20T20:00:59.538Z,101213.12
2023-05-20T20:03:27.402Z,101212.07
2023-05-20T20:05:55.465Z,101224.73
2023-05-20T20:08:23.368Z,101223.13
2023-05-20T20:10:51.339Z,101222.89
2023-05-20T20:13:19.277Z,101215.50
2023-05-20T20:15:47.570Z,101207.10
2023-05-20T20:18:15.665Z,101204.22
2023-05-20T20:20:44.319Z,101201.08
2023-05-20T20:23:12.327Z,101198.17
2023-05-20T20:25:40.602Z,101200.03
2023-05-20T20:28:09.497Z,101194.54
2023-05-20T20:30:37.890Z,101194.54
2023-05-20T20:33:10.822Z,101193.73
2023-05-20T20:35:39.192Z,101187.45
2023-05-20T20:38:11.204Z,101190.84
2023-05-20T20:40:40.921Z,101189.80
2023-05-20T20:43:10.031Z,101196.93
2023-05-20T20:45:41.185Z,101175.61
2023-05-20T20:48:09.196Z,101175.94
2023-05-20T20:50:37.875Z,101183.00
2023-05-20T20:53:05.857Z,101180.64
2023-05-20T20:55:34.023Z,101185.38
2023-05-20T20:58:03.876Z,101188.82
2023-05-20T21:00:32.088Z,101185.65
2023-05-20T21:03:00.030Z,101181.69
2023-05-20T21:05:30.336Z,101179.86
2023-05-20T21:08:04.373Z,101171.45
2023-05-20T21:10:32.700Z,101173.05
2023-05-20T21:13:00.934Z,101168.84
2023-05-20T21:15:28.986Z,101171.23
2023-05-20T21:17:57.004Z,101178.59
2023-05-20T21:20:25.207Z,101171.00
2023-05-20T21:22:53.158Z,101171.78
2023-05-20T21:25:21.094Z,101177.30
2023-05-20T21:27:49.278Z,101174.95
2023-05-20T21:30:18.576Z,101174.43
2023-05-20T21:32:46.960Z,101171.78
2023-05-20T21:35:15.081Z,101168.38
2023-05-20T21:37:42.995Z,101168.91
2023-05-20T21:40:11.320Z,101160.50
2023-05-20T21:42:39.495Z,101158.41
2023-05-20T21:45:08.221Z,101171.81
2023-05-20T21:47:36.198Z,101171.33
2023-05-20T21:50:05.002Z,101174.98
2023-05-20T21:52:33.038Z,101166.84
2023-05-20T21:55:01.190Z,101167.63
2023-05-20T21:57:29.112Z,101172.08
2023-05-20T21:59:57.063Z,101172.34
2023-05-20T22:02:25.100Z,101174.98
2023-05-20T22:04:53.077Z,101173.91
2023-05-20T22:07:20.950Z,101171.52
2023-05-20T22:09:48.828Z,101172.30
2023-05-20T22:12:17.006Z,101164.13
2023-05-20T22:14:44.979Z,101170.93
2023-05-20T22:17:13.167Z,101171.20
2023-05-20T22:19:41.593Z,101164.10
2023-05-20T22:22:09.589Z,101170.67
2023-05-20T22:24:37.663Z,101169.33
2023-05-20T22:27:05.839Z,101171.69
2023-05-20T22:29:34.012Z,101162.98
2023-05-20T22:32:02.229Z,101162.20
2023-05-20T22:34:30.339Z,101154.62
2023-05-20T22:36:59.385Z,101155.10
2023-05-20T22:39:27.388Z,101151.70
2023-05-20T22:41:55.283Z,101150.62
2023-05-20T22:44:23.163Z,101144.84
2023-05-20T22:46:51.010Z,101141.14
2023-05-20T22:49:20.059Z,101139.57
2023-05-20T22:51:48.022Z,101143.01
2023-05-20T22:54:15.952Z,101143.79
2023-05-20T22:56:44.278Z,101146.41
2023-05-20T22:59:12.311Z,101150.07
2023-05-20T23:01:40.364Z,101145.59
2023-05-20T23:04:08.278Z,101145.10
2023-05-20T23:06:39.417Z,101136.17
2023-05-20T23:09:07.588Z,101141.41
2023-05-20T23:11:35.573Z,101127.77
2023-05-20T23:14:03.509Z,101129.08
2023-05-20T23:16:31.509Z,101129.08
2023-05-20T23:19:00.533Z,101130.68
2023-05-20T23:21:28.551Z,101128.59
2023-05-20T23:23:56.487Z,101126.46
2023-05-20T23:26:25.435Z,101126.46
2023-05-20T23:28:53.652Z,101120.45
2023-05-20T23:31:23.842Z,101113.61
2023-05-20T23:33:52.155Z,101119.62
2023-05-20T23:36:21.364Z,101114.66
2023-05-20T23:38:49.242Z,101112.27
2023-05-20T23:41:17.104Z,101113.05
2023-05-20T23:43:45.057Z,101119.82
2023-05-20T23:46:12.962Z,101115.37
2023-05-20T23:48:40.891Z,101113.55
2023-05-20T23:51:11.294Z,101111.71
2023-05-20T23:53:39.188Z,101114.33
2023-05-20T23:56:09.100Z,101115.34
2023-05-20T23:58:37.326Z,101110.60
